createdAt,value
2019-03-10T00:00:35.517Z,63.91
2019-03-10T00:04:39.239Z,63.96
2019-03-10T00:08:42.847Z,63.77
2019-03-10T00:12:46.562Z,63.84
2019-03-10T00:16:50.174Z,63.97
2019-03-10T00:20:53.887Z,63.79
2019-03-10T00:24:57.503Z,63.71
2019-03-10T00:29:01.220Z,63.55
2019-03-10T00:33:04.933Z,63.58
2019-03-10T00:37:08.663Z,63.64
2019-03-10T00:41:27.316Z,63.63
2019-03-10T00:45:43.011Z,63.81
2019-03-10T00:50:21.147Z,64.13
2019-03-10T00:54:24.760Z,64.22
2019-03-10T00:58:28.365Z,64.32
2019-03-10T01:02:32.097Z,64.45
2019-03-10T01:06:36.007Z,64.53
2019-03-10T01:10:39.819Z,64.80
2019-03-10T01:14:43.539Z,64.71
2019-03-10T01:18:48.495Z,64.67
2019-03-10T01:22:52.206Z,64.58
2019-03-10T01:26:55.819Z,64.42
2019-03-10T01:31:02.496Z,64.01
2019-03-10T01:35:09.183Z,63.97
2019-03-10T01:39:12.796Z,64.24
2019-03-10T01:43:16.535Z,64.26
2019-03-10T01:47:20.230Z,64.07
2019-03-10T01:51:23.856Z,64.14
2019-03-10T01:55:27.458Z,64.47
2019-03-10T01:59:31.171Z,64.08
2019-03-10T02:03:34.889Z,64.23
2019-03-10T02:07:38.437Z,64.19
2019-03-10T02:11:42.017Z,64.25
2019-03-10T02:15:45.732Z,64.17
2019-03-10T02:19:50.273Z,64.05
2019-03-10T02:23:53.877Z,64.05
2019-03-10T02:27:57.532Z,64.13
2019-03-10T02:32:01.209Z,64.11
2019-03-10T02:36:04.926Z,64.27
2019-03-10T02:40:09.100Z,64.39
2019-03-10T02:44:12.781Z,64.35
2019-03-10T02:48:16.484Z,64.40
2019-03-10T02:52:20.104Z,64.21
2019-03-10T02:56:23.624Z,64.27
2019-03-10T03:00:27.222Z,64.51
2019-03-10T03:04:31.000Z,64.69
2019-03-10T03:08:34.662Z,64.68
2019-03-10T03:12:38.423Z,64.73
2019-03-10T03:16:42.296Z,64.70
2019-03-10T03:20:45.908Z,64.58
2019-03-10T03:24:49.537Z,64.29
2019-03-10T03:28:53.134Z,64.38
2019-03-10T03:32:56.748Z,64.34
2019-03-10T03:37:00.368Z,64.09
2019-03-10T03:41:24.355Z,63.73
2019-03-10T03:45:27.967Z,63.81
2019-03-10T03:49:31.681Z,63.79
2019-03-10T03:53:35.600Z,64.07
2019-03-10T03:57:39.216Z,64.04
2019-03-10T04:01:44.396Z,64.12
2019-03-10T04:05:47.979Z,64.38
2019-03-10T04:09:51.594Z,64.67
2019-03-10T04:13:55.312Z,64.43
2019-03-10T04:17:58.923Z,64.68
2019-03-10T04:22:02.547Z,64.81
2019-03-10T04:26:06.354Z,64.59
2019-03-10T04:30:12.169Z,64.59
2019-03-10T04:34:15.850Z,64.45
2019-03-10T04:38:19.579Z,64.53
2019-03-10T04:42:23.195Z,64.99
2019-03-10T04:46:26.893Z,64.83
2019-03-10T04:50:30.498Z,64.75
2019-03-10T04:54:41.593Z,64.61
2019-03-10T04:58:46.938Z,64.74
2019-03-10T05:02:50.623Z,64.91
2019-03-10T05:06:54.267Z,64.75
2019-03-10T05:10:57.885Z,64.96
2019-03-10T05:15:01.613Z,64.98
2019-03-10T05:19:05.208Z,65.24
2019-03-10T05:23:30.020Z,65.22
2019-03-10T05:27:33.633Z,65.39
2019-03-10T05:31:37.351Z,65.39
2019-03-10T05:35:41.066Z,65.15
2019-03-10T05:39:44.679Z,65.29
2019-03-10T05:43:48.297Z,65.73
2019-03-10T05:47:51.911Z,65.64
2019-03-10T05:51:55.632Z,65.65
2019-03-10T05:55:59.345Z,65.63
2019-03-10T06:00:03.056Z,65.25
2019-03-10T06:04:06.670Z,65.22
2019-03-10T06:08:10.309Z,64.71
2019-03-10T06:12:13.905Z,64.27
2019-03-10T06:16:17.715Z,64.40
2019-03-10T06:20:21.329Z,64.43
2019-03-10T06:24:24.946Z,64.20
2019-03-10T06:28:28.556Z,64.47
2019-03-10T06:32:32.170Z,64.23
2019-03-10T06:36:35.784Z,64.45
2019-03-10T06:40:39.399Z,64.15
2019-03-10T06:44:42.974Z,63.32
2019-03-10T06:48:46.628Z,62.17
2019-03-10T06:52:50.344Z,59.59
2019-03-10T06:56:54.136Z,56.67
2019-03-10T07:00:57.773Z,52.85
2019-03-10T07:05:01.428Z,52.25
2019-03-10T07:09:05.749Z,53.71
2019-03-10T07:13:09.685Z,57.24
2019-03-10T07:17:13.388Z,59.09
2019-03-10T07:21:16.973Z,60.46
2019-03-10T07:25:20.686Z,59.77
2019-03-10T07:29:28.805Z,55.22
2019-03-10T07:33:45.846Z,53.97
2019-03-10T07:37:51.095Z,52.82
2019-03-10T07:42:08.755Z,51.23
2019-03-10T07:46:19.817Z,48.95
2019-03-10T07:50:25.210Z,49.35
2019-03-10T07:54:30.424Z,50.22
2019-03-10T07:58:41.433Z,48.58
2019-03-10T08:02:49.318Z,46.33
2019-03-10T08:07:10.840Z,47.04
2019-03-10T08:11:16.110Z,47.64
2019-03-10T08:15:21.351Z,49.59
2019-03-10T08:19:38.496Z,50.62
2019-03-10T08:23:43.751Z,50.96
2019-03-10T08:28:02.078Z,52.87
2019-03-10T08:32:07.473Z,54.90
2019-03-10T08:36:13.915Z,54.92
2019-03-10T08:40:19.301Z,55.52
2019-03-10T08:44:30.078Z,55.05
2019-03-10T08:48:37.993Z,55.74
2019-03-10T08:52:51.957Z,56.54
2019-03-10T08:57:09.597Z,57.30
2019-03-10T09:01:14.892Z,56.47
2019-03-10T09:05:32.250Z,55.97
2019-03-10T09:09:52.485Z,55.69
2019-03-10T09:13:57.840Z,55.51
2019-03-10T09:18:14.670Z,56.54
2019-03-10T09:22:28.825Z,57.13
2019-03-10T09:26:37.050Z,56.99
2019-03-10T09:30:42.301Z,56.82
2019-03-10T09:35:03.019Z,56.78
2019-03-10T09:39:11.751Z,56.14
2019-03-10T09:43:29.185Z,55.45
2019-03-10T09:47:34.381Z,54.92
2019-03-10T09:51:55.872Z,55.26
2019-03-10T09:56:06.091Z,53.72
2019-03-10T10:00:16.297Z,54.12
2019-03-10T10:04:21.777Z,51.25
2019-03-10T10:08:42.177Z,51.18
2019-03-10T10:12:59.514Z,49.82
2019-03-10T10:17:04.862Z,51.01
2019-03-10T10:21:13.289Z,51.39
2019-03-10T10:25:18.747Z,52.27
2019-03-10T10:29:29.733Z,51.43
2019-03-10T10:33:44.199Z,53.13
2019-03-10T10:37:50.587Z,53.36
2019-03-10T10:42:02.392Z,51.61
2019-03-10T10:46:07.753Z,49.98
2019-03-10T10:50:19.453Z,51.28
2019-03-10T10:54:39.979Z,51.24
2019-03-10T10:58:54.214Z,51.87
2019-03-10T11:03:15.963Z,51.75
2019-03-10T11:07:22.338Z,50.60
2019-03-10T11:11:27.592Z,51.22
2019-03-10T11:15:50.868Z,51.69
2019-03-10T11:20:04.822Z,51.41
2019-03-10T11:24:10.072Z,51.89
2019-03-10T11:28:15.424Z,52.32
2019-03-10T11:32:23.367Z,51.74
2019-03-10T11:36:37.193Z,50.46
2019-03-10T11:40:45.231Z,53.94
2019-03-10T11:44:53.435Z,56.06
2019-03-10T11:49:15.784Z,52.55
2019-03-10T11:53:21.041Z,52.97
2019-03-10T11:57:26.298Z,55.08
2019-03-10T12:01:34.100Z,54.28
2019-03-10T12:05:41.916Z,54.07
2019-03-10T12:09:45.528Z,53.76
2019-03-10T12:13:49.143Z,55.34
2019-03-10T12:17:52.679Z,55.46
2019-03-10T12:21:56.521Z,53.39
2019-03-10T12:26:00.199Z,52.87
2019-03-10T12:30:04.678Z,53.63
2019-03-10T12:34:08.859Z,53.55
2019-03-10T12:38:12.465Z,53.31
2019-03-10T12:42:16.015Z,55.44
2019-03-10T12:46:19.687Z,54.55
2019-03-10T12:50:23.509Z,52.30
2019-03-10T12:54:27.121Z,51.86
2019-03-10T12:58:30.731Z,50.31
2019-03-10T13:02:34.456Z,50.92
2019-03-10T13:06:38.171Z,54.15
2019-03-10T13:10:41.766Z,53.36
2019-03-10T13:14:45.260Z,54.17
2019-03-10T13:18:48.828Z,55.03
2019-03-10T13:22:52.519Z,55.32
2019-03-10T13:26:56.236Z,55.33
2019-03-10T13:30:59.847Z,55.40
2019-03-10T13:35:03.579Z,55.16
2019-03-10T13:39:07.795Z,56.95
2019-03-10T13:43:11.512Z,57.84
2019-03-10T13:47:15.689Z,58.74
2019-03-10T13:51:19.362Z,58.70
2019-03-10T13:55:22.977Z,59.05
2019-03-10T13:59:28.338Z,59.17
2019-03-10T14:03:32.040Z,58.85
2019-03-10T14:07:35.668Z,56.56
2019-03-10T14:11:39.263Z,59.70
2019-03-10T14:15:44.430Z,62.65
2019-03-10T14:19:48.338Z,60.99
2019-03-10T14:23:52.048Z,61.46
2019-03-10T14:27:55.764Z,62.58
2019-03-10T14:31:59.367Z,63.12
2019-03-10T14:36:03.219Z,63.41
2019-03-10T14:40:09.886Z,63.22
2019-03-10T14:44:13.603Z,62.03
2019-03-10T14:48:17.317Z,61.98
2019-03-10T14:52:28.574Z,63.33
2019-03-10T14:56:33.369Z,63.02
2019-03-10T15:00:38.116Z,63.66
2019-03-10T15:04:41.730Z,65.60
2019-03-10T15:08:46.462Z,65.43
2019-03-10T15:12:51.992Z,66.46
2019-03-10T15:17:01.639Z,67.33
2019-03-10T15:21:00.889Z,67.05
2019-03-10T15:25:06.647Z,67.52
2019-03-10T15:29:10.592Z,67.51
2019-03-10T15:33:14.277Z,68.32
2019-03-10T15:37:17.992Z,68.25
2019-03-10T15:41:21.713Z,67.58
2019-03-10T15:45:27.802Z,67.39
2019-03-10T15:49:31.089Z,67.86
2019-03-10T15:53:34.704Z,67.93
2019-03-10T15:57:49.303Z,68.98
2019-03-10T16:01:43.572Z,68.83
2019-03-10T16:05:47.278Z,68.18
2019-03-10T16:09:50.901Z,68.96
2019-03-10T16:13:54.507Z,68.22
2019-03-10T16:17:58.222Z,68.99
2019-03-10T16:22:01.939Z,68.84
2019-03-10T16:26:05.655Z,69.49
2019-03-10T16:30:17.995Z,69.39
2019-03-10T16:34:21.587Z,69.31
2019-03-10T16:38:25.303Z,69.65
2019-03-10T16:42:28.920Z,69.42
2019-03-10T16:46:32.536Z,69.67
2019-03-10T16:50:36.145Z,69.57
2019-03-10T16:54:39.671Z,69.45
2019-03-10T16:58:43.207Z,69.50
2019-03-10T17:02:46.828Z,69.65
2019-03-10T17:06:50.495Z,69.27
2019-03-10T17:10:54.324Z,69.66
2019-03-10T17:14:58.043Z,69.38
2019-03-10T17:19:01.643Z,69.63
2019-03-10T17:23:05.366Z,69.30
2019-03-10T17:27:08.976Z,69.26
2019-03-10T17:31:12.589Z,69.45
2019-03-10T17:35:17.438Z,69.52
2019-03-10T17:39:21.152Z,69.67
2019-03-10T17:43:24.779Z,69.87
2019-03-10T17:47:28.475Z,70.08
2019-03-10T17:51:32.088Z,70.17
2019-03-10T17:55:35.705Z,70.23
2019-03-10T17:59:39.223Z,70.37
2019-03-10T18:03:42.966Z,70.58
2019-03-10T18:07:49.821Z,70.36
2019-03-10T18:11:53.538Z,70.36
2019-03-10T18:15:57.592Z,70.48
2019-03-10T18:20:01.174Z,70.50
2019-03-10T18:24:04.785Z,70.47
2019-03-10T18:28:08.403Z,70.41
2019-03-10T18:32:12.118Z,70.26
2019-03-10T18:36:15.833Z,70.51
2019-03-10T18:40:22.474Z,70.64
2019-03-10T18:44:25.986Z,70.45
2019-03-10T18:48:29.682Z,70.25
2019-03-10T18:52:33.484Z,70.12
2019-03-10T18:56:37.077Z,70.30
2019-03-10T19:00:41.047Z,69.87
2019-03-10T19:04:44.818Z,70.07
2019-03-10T19:08:48.429Z,70.35
2019-03-10T19:12:52.255Z,70.34
2019-03-10T19:16:55.873Z,70.58
2019-03-10T19:20:59.590Z,70.40
2019-03-10T19:25:03.316Z,70.62
2019-03-10T19:29:07.114Z,70.81
2019-03-10T19:33:13.802Z,70.56
2019-03-10T19:37:17.411Z,70.67
2019-03-10T19:41:21.030Z,70.87
2019-03-10T19:45:25.409Z,70.80
2019-03-10T19:49:29.071Z,70.82
2019-03-10T19:53:32.688Z,70.58
2019-03-10T19:57:36.404Z,70.47
2019-03-10T20:01:40.023Z,70.68
2019-03-10T20:05:43.630Z,70.75
2019-03-10T20:09:47.246Z,70.73
2019-03-10T20:13:50.811Z,70.74
2019-03-10T20:17:55.395Z,70.65
2019-03-10T20:21:59.110Z,70.53
2019-03-10T20:26:02.867Z,70.57
2019-03-10T20:30:09.678Z,70.22
2019-03-10T20:34:13.331Z,70.37
2019-03-10T20:38:16.942Z,70.16
2019-03-10T20:42:20.559Z,70.58
2019-03-10T20:46:24.277Z,70.03
2019-03-10T20:50:28.202Z,70.29
2019-03-10T20:54:31.991Z,70.24
2019-03-10T20:58:35.740Z,70.19
2019-03-10T21:02:40.889Z,70.22
2019-03-10T21:06:44.798Z,70.10
2019-03-10T21:10:48.620Z,70.01
2019-03-10T21:14:52.446Z,70.15
2019-03-10T21:18:56.269Z,70.15
2019-03-10T21:22:59.974Z,70.09
2019-03-10T21:27:03.896Z,69.90
2019-03-10T21:31:07.630Z,69.92
2019-03-10T21:35:17.640Z,69.78
2019-03-10T21:39:16.690Z,69.75
2019-03-10T21:43:20.323Z,69.83
2019-03-10T21:47:24.012Z,69.95
2019-03-10T21:51:27.554Z,69.74
2019-03-10T21:55:31.236Z,69.78
2019-03-10T21:59:34.955Z,70.03
2019-03-10T22:03:38.687Z,69.82
2019-03-10T22:07:42.395Z,69.82
2019-03-10T22:11:46.002Z,69.72
2019-03-10T22:15:49.618Z,69.72
2019-03-10T22:19:53.329Z,69.57
2019-03-10T22:23:59.546Z,69.88
2019-03-10T22:28:02.228Z,69.43
2019-03-10T22:32:05.910Z,69.19
2019-03-10T22:36:09.533Z,69.13
2019-03-10T22:40:15.191Z,69.01
2019-03-10T22:44:18.721Z,69.18
2019-03-10T22:48:22.309Z,69.24
2019-03-10T22:52:26.031Z,69.13
2019-03-10T22:56:29.644Z,69.33
2019-03-10T23:00:47.179Z,69.25
2019-03-10T23:04:50.795Z,69.12
2019-03-10T23:08:54.406Z,69.49
2019-03-10T23:12:58.128Z,69.38
2019-03-10T23:17:01.745Z,69.59
2019-03-10T23:21:05.556Z,69.29
2019-03-10T23:25:09.625Z,69.57
2019-03-10T23:29:13.202Z,69.35
2019-03-10T23:33:16.822Z,69.42
2019-03-10T23:37:20.424Z,69.37
2019-03-10T23:41:24.143Z,69.31
2019-03-10T23:45:27.860Z,69.57
2019-03-10T23:49:31.593Z,69.77
2019-03-10T23:53:35.151Z,69.68
2019-03-10T23:57:38.902Z,69.57
